sensor_id;sensor_type;location;lat;lon;timestamp;P1;durP1;ratioP1;P2;durP2;ratioP2
38513;SDS011;24282;48.400;10.808;2023-05-13T00:00:10;1.83;;;1.30;;
38513;SDS011;24282;48.400;10.808;2023-05-13T00:02:37;1.97;;;1.13;;
38513;SDS011;24282;48.400;10.808;2023-05-13T00:05:03;3.77;;;1.20;;
38513;SDS011;24282;48.400;10.808;2023-05-13T00:07:29;1.73;;;1.20;;
38513;SDS011;24282;48.400;10.808;2023-05-13T00:09:55;2.43;;;1.50;;
38513;SDS011;24282;48.400;10.808;2023-05-13T00:12:21;2.50;;;1.20;;
38513;SDS011;24282;48.400;10.808;2023-05-13T00:14:47;1.60;;;1.20;;
38513;SDS011;24282;48.400;10.808;2023-05-13T00:17:12;1.30;;;1.10;;
38513;SDS011;24282;48.400;10.808;2023-05-13T00:19:38;1.30;;;1.10;;
38513;SDS011;24282;48.400;10.808;2023-05-13T00:22:05;1.63;;;1.20;;
38513;SDS011;24282;48.400;10.808;2023-05-13T00:24:30;2.20;;;1.23;;
38513;SDS011;24282;48.400;10.808;2023-05-13T00:26:56;1.73;;;1.20;;
38513;SDS011;24282;48.400;10.808;2023-05-13T00:29:22;1.30;;;1.00;;
38513;SDS011;24282;48.400;10.808;2023-05-13T00:31:48;3.13;;;1.20;;
38513;SDS011;24282;48.400;10.808;2023-05-13T00:34:15;1.53;;;1.23;;
38513;SDS011;24282;48.400;10.808;2023-05-13T00:36:43;1.97;;;1.20;;
38513;SDS011;24282;48.400;10.808;2023-05-13T00:39:09;1.40;;;1.13;;
38513;SDS011;24282;48.400;10.808;2023-05-13T00:41:35;1.73;;;1.07;;
38513;SDS011;24282;48.400;10.808;2023-05-13T00:44:02;1.33;;;1.07;;
38513;SDS011;24282;48.400;10.808;2023-05-13T00:46:31;2.30;;;1.10;;
38513;SDS011;24282;48.400;10.808;2023-05-13T00:48:58;2.13;;;1.37;;
38513;SDS011;24282;48.400;10.808;2023-05-13T00:51:25;4.13;;;1.30;;
38513;SDS011;24282;48.400;10.808;2023-05-13T00:53:50;2.07;;;1.10;;
38513;SDS011;24282;48.400;10.808;2023-05-13T00:56:17;1.40;;;1.20;;
38513;SDS011;24282;48.400;10.808;2023-05-13T00:58:46;1.47;;;1.20;;
38513;SDS011;24282;48.400;10.808;2023-05-13T01:01:14;1.90;;;1.00;;
38513;SDS011;24282;48.400;10.808;2023-05-13T01:03:50;1.37;;;1.17;;
38513;SDS011;24282;48.400;10.808;2023-05-13T01:06:32;2.87;;;1.03;;
38513;SDS011;24282;48.400;10.808;2023-05-13T01:09:17;1.63;;;1.07;;
38513;SDS011;24282;48.400;10.808;2023-05-13T01:11:53;1.80;;;1.23;;
38513;SDS011;24282;48.400;10.808;2023-05-13T01:14:24;1.93;;;1.20;;
38513;SDS011;24282;48.400;10.808;2023-05-13T01:17:01;1.57;;;1.10;;
38513;SDS011;24282;48.400;10.808;2023-05-13T01:19:45;2.83;;;1.60;;
38513;SDS011;24282;48.400;10.808;2023-05-13T01:22:14;1.60;;;1.23;;
38513;SDS011;24282;48.400;10.808;2023-05-13T01:24:40;1.70;;;1.10;;
38513;SDS011;24282;48.400;10.808;2023-05-13T01:27:06;1.50;;;1.20;;
38513;SDS011;24282;48.400;10.808;2023-05-13T01:29:32;2.50;;;0.90;;
38513;SDS011;24282;48.400;10.808;2023-05-13T01:31:59;1.97;;;1.20;;
38513;SDS011;24282;48.400;10.808;2023-05-13T01:34:26;2.10;;;1.40;;
38513;SDS011;24282;48.400;10.808;2023-05-13T01:36:53;1.83;;;1.20;;
38513;SDS011;24282;48.400;10.808;2023-05-13T01:39:21;1.43;;;1.10;;
38513;SDS011;24282;48.400;10.808;2023-05-13T01:41:51;2.33;;;1.27;;
38513;SDS011;24282;48.400;10.808;2023-05-13T01:44:17;1.90;;;1.37;;
38513;SDS011;24282;48.400;10.808;2023-05-13T01:46:43;1.87;;;1.33;;
38513;SDS011;24282;48.400;10.808;2023-05-13T01:49:09;3.10;;;1.30;;
38513;SDS011;24282;48.400;10.808;2023-05-13T01:51:35;2.70;;;1.53;;
38513;SDS011;24282;48.400;10.808;2023-05-13T01:54:02;1.50;;;1.30;;
38513;SDS011;24282;48.400;10.808;2023-05-13T01:56:30;1.53;;;1.30;;
38513;SDS011;24282;48.400;10.808;2023-05-13T01:58:56;2.80;;;1.80;;
38513;SDS011;24282;48.400;10.808;2023-05-13T02:01:23;1.90;;;1.37;;
38513;SDS011;24282;48.400;10.808;2023-05-13T02:03:48;4.60;;;1.73;;
38513;SDS011;24282;48.400;10.808;2023-05-13T02:06:14;2.20;;;1.60;;
38513;SDS011;24282;48.400;10.808;2023-05-13T02:08:40;2.63;;;1.67;;
38513;SDS011;24282;48.400;10.808;2023-05-13T02:11:07;2.27;;;1.73;;
38513;SDS011;24282;48.400;10.808;2023-05-13T02:13:32;3.10;;;1.63;;
38513;SDS011;24282;48.400;10.808;2023-05-13T02:15:58;1.90;;;1.57;;
38513;SDS011;24282;48.400;10.808;2023-05-13T02:18:24;2.43;;;1.70;;
38513;SDS011;24282;48.400;10.808;2023-05-13T02:20:50;2.27;;;1.37;;
38513;SDS011;24282;48.400;10.808;2023-05-13T02:23:16;3.23;;;2.10;;
38513;SDS011;24282;48.400;10.808;2023-05-13T02:25:42;2.50;;;1.70;;
38513;SDS011;24282;48.400;10.808;2023-05-13T02:28:08;2.63;;;1.70;;
38513;SDS011;24282;48.400;10.808;2023-05-13T02:30:34;1.93;;;1.50;;
38513;SDS011;24282;48.400;10.808;2023-05-13T02:33:00;2.57;;;1.60;;
38513;SDS011;24282;48.400;10.808;2023-05-13T02:35:27;2.57;;;1.70;;
38513;SDS011;24282;48.400;10.808;2023-05-13T02:37:57;2.70;;;1.57;;
38513;SDS011;24282;48.400;10.808;2023-05-13T02:40:23;2.30;;;1.30;;
38513;SDS011;24282;48.400;10.808;2023-05-13T02:42:49;3.43;;;1.57;;
38513;SDS011;24282;48.400;10.808;2023-05-13T02:45:19;2.47;;;1.70;;
38513;SDS011;24282;48.400;10.808;2023-05-13T02:47:50;2.00;;;1.50;;
38513;SDS011;24282;48.400;10.808;2023-05-13T02:50:16;1.93;;;1.50;;
38513;SDS011;24282;48.400;10.808;2023-05-13T02:52:42;2.00;;;1.60;;
38513;SDS011;24282;48.400;10.808;2023-05-13T02:55:08;2.17;;;1.70;;
38513;SDS011;24282;48.400;10.808;2023-05-13T02:57:35;2.47;;;1.50;;
38513;SDS011;24282;48.400;10.808;2023-05-13T03:00:05;2.10;;;1.63;;
38513;SDS011;24282;48.400;10.808;2023-05-13T03:02:32;5.43;;;1.70;;
38513;SDS011;24282;48.400;10.808;2023-05-13T03:04:59;2.67;;;1.90;;
38513;SDS011;24282;48.400;10.808;2023-05-13T03:07:24;3.00;;;2.00;;
38513;SDS011;24282;48.400;10.808;2023-05-13T03:09:50;4.60;;;2.17;;
38513;SDS011;24282;48.400;10.808;2023-05-13T03:12:16;3.33;;;1.90;;
38513;SDS011;24282;48.400;10.808;2023-05-13T03:14:42;4.37;;;2.60;;
38513;SDS011;24282;48.400;10.808;2023-05-13T03:17:09;3.10;;;2.17;;
38513;SDS011;24282;48.400;10.808;2023-05-13T03:19:36;3.97;;;2.30;;
38513;SDS011;24282;48.400;10.808;2023-05-13T03:22:03;2.70;;;2.10;;
38513;SDS011;24282;48.400;10.808;2023-05-13T03:24:30;3.77;;;2.53;;
38513;SDS011;24282;48.400;10.808;2023-05-13T03:26:57;3.40;;;2.67;;
38513;SDS011;24282;48.400;10.808;2023-05-13T03:29:23;3.40;;;2.23;;
38513;SDS011;24282;48.400;10.808;2023-05-13T03:31:51;3.93;;;2.90;;
38513;SDS011;24282;48.400;10.808;2023-05-13T03:34:21;4.40;;;2.87;;
38513;SDS011;24282;48.400;10.808;2023-05-13T03:36:47;3.27;;;2.63;;
38513;SDS011;24282;48.400;10.808;2023-05-13T03:39:13;4.00;;;2.87;;
38513;SDS011;24282;48.400;10.808;2023-05-13T03:41:38;5.00;;;3.03;;
38513;SDS011;24282;48.400;10.808;2023-05-13T03:44:04;4.27;;;3.20;;
38513;SDS011;24282;48.400;10.808;2023-05-13T03:46:31;7.70;;;3.37;;
38513;SDS011;24282;48.400;10.808;2023-05-13T03:48:58;4.23;;;3.30;;
38513;SDS011;24282;48.400;10.808;2023-05-13T03:51:26;4.43;;;3.23;;
38513;SDS011;24282;48.400;10.808;2023-05-13T03:53:52;4.10;;;3.50;;
38513;SDS011;24282;48.400;10.808;2023-05-13T03:56:18;4.70;;;3.60;;
38513;SDS011;24282;48.400;10.808;2023-05-13T03:58:44;4.43;;;3.03;;
38513;SDS011;24282;48.400;10.808;2023-05-13T04:01:10;3.70;;;3.00;;
38513;SDS011;24282;48.400;10.808;2023-05-13T04:03:35;4.20;;;2.77;;
38513;SDS011;24282;48.400;10.808;2023-05-13T04:06:01;3.40;;;2.70;;
38513;SDS011;24282;48.400;10.808;2023-05-13T04:08:27;3.17;;;2.60;;
38513;SDS011;24282;48.400;10.808;2023-05-13T04:10:52;3.87;;;2.90;;
38513;SDS011;24282;48.400;10.808;2023-05-13T04:13:20;5.17;;;3.73;;
38513;SDS011;24282;48.400;10.808;2023-05-13T04:15:46;5.10;;;3.67;;
38513;SDS011;24282;48.400;10.808;2023-05-13T04:18:12;4.47;;;3.40;;
38513;SDS011;24282;48.400;10.808;2023-05-13T04:20:38;4.30;;;3.13;;
38513;SDS011;24282;48.400;10.808;2023-05-13T04:23:04;4.80;;;2.70;;
38513;SDS011;24282;48.400;10.808;2023-05-13T04:25:30;3.57;;;2.83;;
38513;SDS011;24282;48.400;10.808;2023-05-13T04:27:56;3.60;;;2.57;;
38513;SDS011;24282;48.400;10.808;2023-05-13T04:30:28;4.17;;;2.70;;
38513;SDS011;24282;48.400;10.808;2023-05-13T04:32:53;3.33;;;2.53;;
38513;SDS011;24282;48.400;10.808;2023-05-13T04:35:19;4.40;;;2.80;;
38513;SDS011;24282;48.400;10.808;2023-05-13T04:37:50;3.17;;;2.57;;
38513;SDS011;24282;48.400;10.808;2023-05-13T04:40:17;4.07;;;3.00;;
38513;SDS011;24282;48.400;10.808;2023-05-13T04:42:44;3.87;;;3.10;;
38513;SDS011;24282;48.400;10.808;2023-05-13T04:45:10;3.83;;;3.03;;
38513;SDS011;24282;48.400;10.808;2023-05-13T04:47:35;4.37;;;3.17;;
38513;SDS011;24282;48.400;10.808;2023-05-13T04:50:02;3.50;;;2.83;;
38513;SDS011;24282;48.400;10.808;2023-05-13T04:52:29;4.97;;;3.07;;
38513;SDS011;24282;48.400;10.808;2023-05-13T04:54:55;4.03;;;3.30;;
38513;SDS011;24282;48.400;10.808;2023-05-13T04:57:20;3.63;;;2.90;;
38513;SDS011;24282;48.400;10.808;2023-05-13T04:59:46;4.63;;;3.23;;
38513;SDS011;24282;48.400;10.808;2023-05-13T05:02:13;3.40;;;2.80;;
38513;SDS011;24282;48.400;10.808;2023-05-13T05:04:39;4.63;;;3.27;;
38513;SDS011;24282;48.400;10.808;2023-05-13T05:07:10;3.33;;;2.70;;
38513;SDS011;24282;48.400;10.808;2023-05-13T05:09:35;5.63;;;3.00;;
38513;SDS011;24282;48.400;10.808;2023-05-13T05:12:01;3.40;;;2.63;;
38513;SDS011;24282;48.400;10.808;2023-05-13T05:14:30;3.40;;;3.10;;
38513;SDS011;24282;48.400;10.808;2023-05-13T05:16:56;3.30;;;2.83;;
38513;SDS011;24282;48.400;10.808;2023-05-13T05:19:23;3.23;;;2.87;;
38513;SDS011;24282;48.400;10.808;2023-05-13T05:21:52;4.40;;;2.97;;
38513;SDS011;24282;48.400;10.808;2023-05-13T05:24:18;4.90;;;3.40;;
38513;SDS011;24282;48.400;10.808;2023-05-13T05:26:44;5.40;;;3.87;;
38513;SDS011;24282;48.400;10.808;2023-05-13T05:29:09;5.13;;;4.00;;
38513;SDS011;24282;48.400;10.808;2023-05-13T05:31:35;5.00;;;4.20;;
38513;SDS011;24282;48.400;10.808;2023-05-13T05:34:01;4.67;;;4.03;;
38513;SDS011;24282;48.400;10.808;2023-05-13T05:36:27;4.17;;;3.77;;
38513;SDS011;24282;48.400;10.808;2023-05-13T05:38:54;5.13;;;4.37;;
38513;SDS011;24282;48.400;10.808;2023-05-13T05:41:22;4.80;;;4.30;;
38513;SDS011;24282;48.400;10.808;2023-05-13T05:43:47;5.27;;;4.10;;
38513;SDS011;24282;48.400;10.808;2023-05-13T05:46:14;5.80;;;4.50;;
38513;SDS011;24282;48.400;10.808;2023-05-13T05:48:40;4.73;;;4.27;;
38513;SDS011;24282;48.400;10.808;2023-05-13T05:51:06;4.80;;;4.30;;
38513;SDS011;24282;48.400;10.808;2023-05-13T05:53:34;5.00;;;4.43;;
38513;SDS011;24282;48.400;10.808;2023-05-13T05:56:02;5.67;;;4.97;;
38513;SDS011;24282;48.400;10.808;2023-05-13T05:58:29;4.60;;;4.13;;
38513;SDS011;24282;48.400;10.808;2023-05-13T06:00:55;5.07;;;4.57;;
38513;SDS011;24282;48.400;10.808;2023-05-13T06:03:22;5.17;;;4.67;;
38513;SDS011;24282;48.400;10.808;2023-05-13T06:05:48;8.83;;;5.20;;
38513;SDS011;24282;48.400;10.808;2023-05-13T06:08:14;5.40;;;4.90;;
38513;SDS011;24282;48.400;10.808;2023-05-13T06:10:39;5.67;;;5.17;;
38513;SDS011;24282;48.400;10.808;2023-05-13T06:13:05;6.17;;;5.57;;
38513;SDS011;24282;48.400;10.808;2023-05-13T06:15:33;5.93;;;5.33;;
38513;SDS011;24282;48.400;10.808;2023-05-13T06:17:58;5.73;;;5.20;;
38513;SDS011;24282;48.400;10.808;2023-05-13T06:20:25;7.47;;;6.07;;
38513;SDS011;24282;48.400;10.808;2023-05-13T06:22:51;6.20;;;5.37;;
38513;SDS011;24282;48.400;10.808;2023-05-13T06:25:17;6.30;;;5.70;;
38513;SDS011;24282;48.400;10.808;2023-05-13T06:27:42;5.77;;;5.17;;
38513;SDS011;24282;48.400;10.808;2023-05-13T06:30:09;6.97;;;5.43;;
38513;SDS011;24282;48.400;10.808;2023-05-13T06:32:40;6.30;;;5.53;;
38513;SDS011;24282;48.400;10.808;2023-05-13T06:35:05;6.03;;;5.47;;
38513;SDS011;24282;48.400;10.808;2023-05-13T06:37:32;6.30;;;5.70;;
38513;SDS011;24282;48.400;10.808;2023-05-13T06:39:58;6.10;;;5.50;;
38513;SDS011;24282;48.400;10.808;2023-05-13T06:42:24;6.70;;;6.00;;
38513;SDS011;24282;48.400;10.808;2023-05-13T06:44:57;6.30;;;5.70;;
38513;SDS011;24282;48.400;10.808;2023-05-13T06:47:26;6.77;;;6.10;;
38513;SDS011;24282;48.400;10.808;2023-05-13T06:49:52;6.00;;;5.33;;
38513;SDS011;24282;48.400;10.808;2023-05-13T06:52:17;5.53;;;5.03;;
38513;SDS011;24282;48.400;10.808;2023-05-13T06:54:43;7.00;;;5.10;;
38513;SDS011;24282;48.400;10.808;2023-05-13T06:57:09;5.20;;;4.70;;
38513;SDS011;24282;48.400;10.808;2023-05-13T06:59:34;6.37;;;5.77;;
38513;SDS011;24282;48.400;10.808;2023-05-13T07:02:00;6.30;;;5.60;;
38513;SDS011;24282;48.400;10.808;2023-05-13T07:04:26;6.10;;;5.50;;
38513;SDS011;24282;48.400;10.808;2023-05-13T07:06:54;6.03;;;5.43;;
38513;SDS011;24282;48.400;10.808;2023-05-13T07:09:20;6.30;;;5.43;;
38513;SDS011;24282;48.400;10.808;2023-05-13T07:11:46;7.30;;;5.90;;
38513;SDS011;24282;48.400;10.808;2023-05-13T07:14:12;6.83;;;6.13;;
38513;SDS011;24282;48.400;10.808;2023-05-13T07:16:38;6.00;;;5.40;;
38513;SDS011;24282;48.400;10.808;2023-05-13T07:19:03;5.90;;;5.30;;
38513;SDS011;24282;48.400;10.808;2023-05-13T07:21:29;6.03;;;5.43;;
38513;SDS011;24282;48.400;10.808;2023-05-13T07:23:55;6.27;;;5.67;;
38513;SDS011;24282;48.400;10.808;2023-05-13T07:26:20;5.73;;;5.17;;
38513;SDS011;24282;48.400;10.808;2023-05-13T07:28:46;5.30;;;4.80;;
38513;SDS011;24282;48.400;10.808;2023-05-13T07:31:12;5.00;;;4.50;;
38513;SDS011;24282;48.400;10.808;2023-05-13T07:33:38;6.23;;;4.20;;
38513;SDS011;24282;48.400;10.808;2023-05-13T07:36:04;4.50;;;4.10;;
38513;SDS011;24282;48.400;10.808;2023-05-13T07:38:30;4.83;;;4.33;;
38513;SDS011;24282;48.400;10.808;2023-05-13T07:40:56;4.80;;;4.00;;
38513;SDS011;24282;48.400;10.808;2023-05-13T07:43:22;4.70;;;4.20;;
38513;SDS011;24282;48.400;10.808;2023-05-13T07:45:50;3.73;;;3.33;;
38513;SDS011;24282;48.400;10.808;2023-05-13T07:48:16;4.20;;;3.77;;
38513;SDS011;24282;48.400;10.808;2023-05-13T07:50:46;5.07;;;4.40;;
38513;SDS011;24282;48.400;10.808;2023-05-13T07:53:11;5.50;;;4.00;;
38513;SDS011;24282;48.400;10.808;2023-05-13T07:55:37;4.30;;;3.90;;
38513;SDS011;24282;48.400;10.808;2023-05-13T07:58:03;4.73;;;4.13;;
38513;SDS011;24282;48.400;10.808;2023-05-13T08:00:30;4.83;;;4.37;;
38513;SDS011;24282;48.400;10.808;2023-05-13T08:02:56;4.10;;;3.70;;
38513;SDS011;24282;48.400;10.808;2023-05-13T08:05:22;4.90;;;3.57;;
38513;SDS011;24282;48.400;10.808;2023-05-13T08:07:47;4.23;;;3.40;;
38513;SDS011;24282;48.400;10.808;2023-05-13T08:10:13;4.63;;;4.10;;
38513;SDS011;24282;48.400;10.808;2023-05-13T08:12:39;3.57;;;3.07;;
38513;SDS011;24282;48.400;10.808;2023-05-13T08:15:05;3.87;;;3.47;;
38513;SDS011;24282;48.400;10.808;2023-05-13T08:17:31;3.40;;;3.10;;
38513;SDS011;24282;48.400;10.808;2023-05-13T08:19:57;4.20;;;3.80;;
38513;SDS011;24282;48.400;10.808;2023-05-13T08:22:24;6.07;;;3.30;;
38513;SDS011;24282;48.400;10.808;2023-05-13T08:24:50;4.67;;;3.50;;
38513;SDS011;24282;48.400;10.808;2023-05-13T08:27:16;5.07;;;3.33;;
38513;SDS011;24282;48.400;10.808;2023-05-13T08:29:42;3.97;;;3.50;;
38513;SDS011;24282;48.400;10.808;2023-05-13T08:32:08;3.30;;;3.00;;
38513;SDS011;24282;48.400;10.808;2023-05-13T08:34:33;4.33;;;3.30;;
38513;SDS011;24282;48.400;10.808;2023-05-13T08:36:59;3.37;;;2.80;;
38513;SDS011;24282;48.400;10.808;2023-05-13T08:39:25;3.03;;;2.73;;
38513;SDS011;24282;48.400;10.808;2023-05-13T08:41:51;3.53;;;3.20;;
38513;SDS011;24282;48.400;10.808;2023-05-13T08:44:21;4.47;;;2.73;;
38513;SDS011;24282;48.400;10.808;2023-05-13T08:46:55;3.23;;;2.93;;
38513;SDS011;24282;48.400;10.808;2023-05-13T08:49:45;4.27;;;2.97;;
38513;SDS011;24282;48.400;10.808;2023-05-13T08:52:11;3.80;;;2.80;;
38513;SDS011;24282;48.400;10.808;2023-05-13T08:54:37;3.40;;;2.73;;
38513;SDS011;24282;48.400;10.808;2023-05-13T08:57:03;3.47;;;2.70;;
38513;SDS011;24282;48.400;10.808;2023-05-13T08:59:30;3.10;;;2.40;;
38513;SDS011;24282;48.400;10.808;2023-05-13T09:01:56;2.80;;;2.30;;
38513;SDS011;24282;48.400;10.808;2023-05-13T09:04:24;3.13;;;2.57;;
38513;SDS011;24282;48.400;10.808;2023-05-13T09:06:50;3.00;;;2.40;;
38513;SDS011;24282;48.400;10.808;2023-05-13T09:09:16;2.43;;;2.00;;
38513;SDS011;24282;48.400;10.808;2023-05-13T09:11:41;3.27;;;2.13;;
38513;SDS011;24282;48.400;10.808;2023-05-13T09:14:10;3.03;;;2.47;;
38513;SDS011;24282;48.400;10.808;2023-05-13T09:16:37;3.73;;;2.53;;
38513;SDS011;24282;48.400;10.808;2023-05-13T09:19:04;3.07;;;2.33;;
38513;SDS011;24282;48.400;10.808;2023-05-13T09:21:32;3.13;;;2.47;;
38513;SDS011;24282;48.400;10.808;2023-05-13T09:26:32;3.30;;;2.73;;
38513;SDS011;24282;48.400;10.808;2023-05-13T09:31:46;3.03;;;2.53;;
38513;SDS011;24282;48.400;10.808;2023-05-13T09:34:24;3.50;;;3.20;;
38513;SDS011;24282;48.400;10.808;2023-05-13T09:36:55;3.17;;;2.87;;
38513;SDS011;24282;48.400;10.808;2023-05-13T09:39:21;3.10;;;2.70;;
38513;SDS011;24282;48.400;10.808;2023-05-13T09:41:47;3.20;;;2.90;;
38513;SDS011;24282;48.400;10.808;2023-05-13T09:44:12;3.47;;;3.07;;
38513;SDS011;24282;48.400;10.808;2023-05-13T09:46:38;4.00;;;3.17;;
38513;SDS011;24282;48.400;10.808;2023-05-13T09:49:08;3.67;;;3.10;;
38513;SDS011;24282;48.400;10.808;2023-05-13T09:51:34;3.90;;;3.20;;
38513;SDS011;24282;48.400;10.808;2023-05-13T09:54:03;4.20;;;3.03;;
38513;SDS011;24282;48.400;10.808;2023-05-13T09:56:31;3.57;;;2.63;;
38513;SDS011;24282;48.400;10.808;2023-05-13T09:58:59;3.47;;;3.03;;
38513;SDS011;24282;48.400;10.808;2023-05-13T10:01:26;2.87;;;2.50;;
38513;SDS011;24282;48.400;10.808;2023-05-13T10:03:56;2.97;;;2.60;;
38513;SDS011;24282;48.400;10.808;2023-05-13T10:06:27;3.40;;;2.80;;
38513;SDS011;24282;48.400;10.808;2023-05-13T10:08:55;3.33;;;3.03;;
38513;SDS011;24282;48.400;10.808;2023-05-13T10:11:23;3.87;;;3.07;;
38513;SDS011;24282;48.400;10.808;2023-05-13T10:13:53;2.83;;;2.53;;
38513;SDS011;24282;48.400;10.808;2023-05-13T10:16:23;3.78;;;2.88;;
38513;SDS011;24282;48.400;10.808;2023-05-13T10:18:49;2.90;;;2.50;;
38513;SDS011;24282;48.400;10.808;2023-05-13T10:21:17;3.33;;;3.03;;
38513;SDS011;24282;48.400;10.808;2023-05-13T10:23:43;2.73;;;2.43;;
38513;SDS011;24282;48.400;10.808;2023-05-13T10:26:11;3.10;;;2.67;;
38513;SDS011;24282;48.400;10.808;2023-05-13T10:28:37;2.70;;;2.23;;
38513;SDS011;24282;48.400;10.808;2023-05-13T10:31:03;2.42;;;2.17;;
38513;SDS011;24282;48.400;10.808;2023-05-13T10:33:29;3.10;;;2.30;;
38513;SDS011;24282;48.400;10.808;2023-05-13T10:36:00;2.73;;;1.97;;
38513;SDS011;24282;48.400;10.808;2023-05-13T10:44:25;2.27;;;1.93;;
38513;SDS011;24282;48.400;10.808;2023-05-13T10:46:51;2.27;;;1.87;;
38513;SDS011;24282;48.400;10.808;2023-05-13T10:49:20;2.20;;;1.80;;
38513;SDS011;24282;48.400;10.808;2023-05-13T10:51:48;2.40;;;2.20;;
38513;SDS011;24282;48.400;10.808;2023-05-13T10:54:21;2.17;;;1.90;;
38513;SDS011;24282;48.400;10.808;2023-05-13T10:56:58;1.73;;;1.50;;
38513;SDS011;24282;48.400;10.808;2023-05-13T10:59:25;1.60;;;1.47;;
38513;SDS011;24282;48.400;10.808;2023-05-13T11:01:54;1.47;;;1.30;;
38513;SDS011;24282;48.400;10.808;2023-05-13T11:04:20;2.23;;;1.70;;
38513;SDS011;24282;48.400;10.808;2023-05-13T11:06:47;1.93;;;1.60;;
38513;SDS011;24282;48.400;10.808;2023-05-13T11:09:28;2.00;;;1.70;;
38513;SDS011;24282;48.400;10.808;2023-05-13T11:11:57;1.90;;;1.33;;
38513;SDS011;24282;48.400;10.808;2023-05-13T11:14:29;1.80;;;1.63;;
38513;SDS011;24282;48.400;10.808;2023-05-13T11:19:27;4.50;;;1.70;;
38513;SDS011;24282;48.400;10.808;2023-05-13T11:21:55;1.50;;;1.30;;
38513;SDS011;24282;48.400;10.808;2023-05-13T11:24:34;1.30;;;1.20;;
38513;SDS011;24282;48.400;10.808;2023-05-13T11:29:46;1.33;;;1.17;;
38513;SDS011;24282;48.400;10.808;2023-05-13T11:37:49;1.50;;;1.20;;
38513;SDS011;24282;48.400;10.808;2023-05-13T11:40:24;1.70;;;1.30;;
38513;SDS011;24282;48.400;10.808;2023-05-13T11:42:59;1.23;;;1.07;;
38513;SDS011;24282;48.400;10.808;2023-05-13T11:45:25;5.70;;;1.60;;
38513;SDS011;24282;48.400;10.808;2023-05-13T11:47:52;2.37;;;1.20;;
38513;SDS011;24282;48.400;10.808;2023-05-13T11:52:52;2.00;;;1.30;;
38513;SDS011;24282;48.400;10.808;2023-05-13T11:55:29;2.07;;;1.30;;
38513;SDS011;24282;48.400;10.808;2023-05-13T11:58:00;1.67;;;1.20;;
38513;SDS011;24282;48.400;10.808;2023-05-13T12:00:27;1.47;;;1.20;;
38513;SDS011;24282;48.400;10.808;2023-05-13T12:02:54;1.40;;;1.20;;
38513;SDS011;24282;48.400;10.808;2023-05-13T12:05:20;1.50;;;1.30;;
38513;SDS011;24282;48.400;10.808;2023-05-13T12:07:46;1.57;;;1.30;;
38513;SDS011;24282;48.400;10.808;2023-05-13T12:10:12;1.57;;;1.30;;
38513;SDS011;24282;48.400;10.808;2023-05-13T12:12:39;1.83;;;1.30;;
38513;SDS011;24282;48.400;10.808;2023-05-13T12:15:08;1.60;;;1.30;;
38513;SDS011;24282;48.400;10.808;2023-05-13T12:17:35;2.50;;;1.33;;
38513;SDS011;24282;48.400;10.808;2023-05-13T12:28:05;2.17;;;1.57;;
38513;SDS011;24282;48.400;10.808;2023-05-13T12:30:33;1.80;;;1.30;;
38513;SDS011;24282;48.400;10.808;2023-05-13T12:32:59;1.77;;;1.40;;
38513;SDS011;24282;48.400;10.808;2023-05-13T12:35:25;1.40;;;1.20;;
38513;SDS011;24282;48.400;10.808;2023-05-13T12:37:58;1.43;;;1.27;;
38513;SDS011;24282;48.400;10.808;2023-05-13T12:40:28;1.38;;;1.20;;
38513;SDS011;24282;48.400;10.808;2023-05-13T12:42:58;7.03;;;1.40;;
38513;SDS011;24282;48.400;10.808;2023-05-13T12:45:29;1.65;;;1.20;;
38513;SDS011;24282;48.400;10.808;2023-05-13T12:47:55;2.17;;;1.73;;
38513;SDS011;24282;48.400;10.808;2023-05-13T12:50:22;2.30;;;1.50;;
38513;SDS011;24282;48.400;10.808;2023-05-13T12:52:48;3.17;;;1.90;;
38513;SDS011;24282;48.400;10.808;2023-05-13T12:55:17;1.90;;;1.48;;
38513;SDS011;24282;48.400;10.808;2023-05-13T12:57:43;2.63;;;1.55;;
38513;SDS011;24282;48.400;10.808;2023-05-13T13:00:25;2.23;;;1.70;;
38513;SDS011;24282;48.400;10.808;2023-05-13T13:02:51;1.25;;;1.10;;
38513;SDS011;24282;48.400;10.808;2023-05-13T13:05:21;1.67;;;1.40;;
38513;SDS011;24282;48.400;10.808;2023-05-13T13:07:48;1.80;;;1.38;;
38513;SDS011;24282;48.400;10.808;2023-05-13T13:10:14;1.73;;;1.30;;
38513;SDS011;24282;48.400;10.808;2023-05-13T13:12:40;2.27;;;1.50;;
38513;SDS011;24282;48.400;10.808;2023-05-13T13:15:06;2.47;;;1.37;;
38513;SDS011;24282;48.400;10.808;2023-05-13T13:17:34;1.60;;;1.48;;
38513;SDS011;24282;48.400;10.808;2023-05-13T13:20:00;1.40;;;1.20;;
38513;SDS011;24282;48.400;10.808;2023-05-13T13:22:26;1.23;;;1.02;;
38513;SDS011;24282;48.400;10.808;2023-05-13T13:24:51;1.63;;;1.10;;
38513;SDS011;24282;48.400;10.808;2023-05-13T13:27:17;1.50;;;1.13;;
38513;SDS011;24282;48.400;10.808;2023-05-13T13:29:43;1.75;;;1.17;;
38513;SDS011;24282;48.400;10.808;2023-05-13T13:32:09;1.58;;;1.20;;
38513;SDS011;24282;48.400;10.808;2023-05-13T13:34:35;1.60;;;1.50;;
38513;SDS011;24282;48.400;10.808;2023-05-13T13:37:02;1.20;;;1.10;;
38513;SDS011;24282;48.400;10.808;2023-05-13T13:39:27;1.92;;;1.50;;
38513;SDS011;24282;48.400;10.808;2023-05-13T13:41:53;1.30;;;1.20;;
38513;SDS011;24282;48.400;10.808;2023-05-13T13:44:19;1.45;;;1.13;;
38513;SDS011;24282;48.400;10.808;2023-05-13T13:46:45;1.25;;;1.10;;
38513;SDS011;24282;48.400;10.808;2023-05-13T13:49:11;2.55;;;1.13;;
38513;SDS011;24282;48.400;10.808;2023-05-13T13:51:36;1.70;;;1.30;;
38513;SDS011;24282;48.400;10.808;2023-05-13T13:54:05;2.13;;;1.58;;
38513;SDS011;24282;48.400;10.808;2023-05-13T13:56:32;1.70;;;1.13;;
38513;SDS011;24282;48.400;10.808;2023-05-13T13:59:00;1.30;;;1.02;;
38513;SDS011;24282;48.400;10.808;2023-05-13T14:01:26;1.48;;;1.27;;
38513;SDS011;24282;48.400;10.808;2023-05-13T14:03:51;2.60;;;1.20;;
38513;SDS011;24282;48.400;10.808;2023-05-13T14:06:33;1.70;;;1.35;;
38513;SDS011;24282;48.400;10.808;2023-05-13T14:08:59;1.65;;;1.33;;
38513;SDS011;24282;48.400;10.808;2023-05-13T14:11:24;2.20;;;1.30;;
38513;SDS011;24282;48.400;10.808;2023-05-13T14:13:50;1.85;;;1.58;;
38513;SDS011;24282;48.400;10.808;2023-05-13T14:16:16;2.17;;;1.58;;
38513;SDS011;24282;48.400;10.808;2023-05-13T14:18:41;1.85;;;1.65;;
38513;SDS011;24282;48.400;10.808;2023-05-13T14:21:08;1.65;;;1.40;;
38513;SDS011;24282;48.400;10.808;2023-05-13T14:23:34;1.35;;;1.10;;
38513;SDS011;24282;48.400;10.808;2023-05-13T14:25:59;1.73;;;1.30;;
38513;SDS011;24282;48.400;10.808;2023-05-13T14:28:25;1.73;;;1.40;;
38513;SDS011;24282;48.400;10.808;2023-05-13T14:30:51;1.27;;;1.00;;
38513;SDS011;24282;48.400;10.808;2023-05-13T14:33:16;1.52;;;1.05;;
38513;SDS011;24282;48.400;10.808;2023-05-13T14:35:42;1.42;;;1.10;;
38513;SDS011;24282;48.400;10.808;2023-05-13T14:38:08;1.08;;;0.95;;
38513;SDS011;24282;48.400;10.808;2023-05-13T14:40:34;1.83;;;1.10;;
38513;SDS011;24282;48.400;10.808;2023-05-13T14:43:00;1.20;;;1.10;;
38513;SDS011;24282;48.400;10.808;2023-05-13T14:45:25;1.45;;;0.82;;
38513;SDS011;24282;48.400;10.808;2023-05-13T14:47:51;1.13;;;0.70;;
38513;SDS011;24282;48.400;10.808;2023-05-13T14:50:20;0.60;;;0.60;;
38513;SDS011;24282;48.400;10.808;2023-05-13T14:52:46;1.08;;;0.80;;
38513;SDS011;24282;48.400;10.808;2023-05-13T14:55:12;1.13;;;0.80;;
38513;SDS011;24282;48.400;10.808;2023-05-13T14:57:37;0.90;;;0.80;;
38513;SDS011;24282;48.400;10.808;2023-05-13T15:00:04;1.60;;;0.90;;
38513;SDS011;24282;48.400;10.808;2023-05-13T15:02:31;1.02;;;0.80;;
38513;SDS011;24282;48.400;10.808;2023-05-13T15:04:56;2.10;;;1.05;;